OSOK1: Oswego hwy 160

Data processed at Wed May 22 2019 23:50


All information presented herein is the property of the government of the United States of America and may be revised or deleted at any time without prior notice.
Dissemination of this information without the expressed written consent of the Public Affairs Office, Tulsa District U.S. Army Corps of Engineers is strictly prohibited.
These data are gathered electronically and, as presented, have not undergone any form of quality control. These data are not guaranteed to be valid or correct.
Go to home page.
Go to station list.
Go to home page.

Upstream stations:

Downstream station:
Previous Day
Next Day
Current Day
    
SHEF ID:       OSOK1     Oswego hwy 160
STATION TYPE:  

               PRECIP     STAGE  RIV-FLOW   VOLTAGE  BAT-LOAD
                   in        ft       cfs      volt      volt
              Ccp-Rev   Ccp-Rev   Ccp-Rev   Ccp-Rev   Ccp-Rev
(US/Central)
05/22 00:00      0.00     32.17     36272     12.65     12.49
05/22 01:00      0.00     32.46     37761     12.65     12.49
05/22 02:00      0.00     32.62     38712     12.65     12.49
05/22 03:00      0.00     32.71     39256     12.57     12.41
05/22 04:00      0.00     32.95     40731     12.57     12.41
05/22 05:00      0.00     33.08     41548     12.57     12.41
05/22 06:00      0.00     33.18     42184     12.57     12.41
05/22 07:00      0.00     33.26     42999     12.57     12.41
05/22 08:00      0.00     33.29     43346     12.73     12.57
05/22 09:00      0.00     33.41     44759     12.89     12.73
05/22 10:00      0.00     33.46     45359     12.89     12.73
05/22 11:00      0.00     33.53     46210     13.29     13.13
05/22 12:00      0.00     33.46     45359     13.13     12.97
05/22 13:00      0.00     33.59     46951     12.97     12.81
05/22 14:00      0.00     33.58     46827     13.44     13.29
05/22 15:00      0.00     33.67     47954     13.29     13.21
05/22 16:00      0.00     33.62     47325     13.21     12.97
05/22 17:00      0.00     33.68     48081     13.13     12.97
05/22 18:00      0.00     33.64     47576     13.13     12.97
05/22 19:00      0.04     33.57     46703     12.81     12.73
05/22 20:00      0.04     33.56     46579     12.73     12.57
05/22 21:00      0.01     33.63     47450     12.65     12.57
05/22 22:00      0.00     33.64     47576     12.65     12.57
05/22 23:00      0.01     33.56     46579     12.65     12.49